Time;durP1;ratioP1;P1;durP2;ratioP2;P2;SDS_P1;SDS_P2;PMS_P1;PMS_P2;Temp;Humidity;BMP_temperature;BMP_pressure;BME280_temperature;BME280_humidity;BME280_pressure;Samples;Min_cycle;Max_cycle;Signal;HPM_P1;HPM_P2
2022/06/24 00:01:59;;;;;;;5.15;4.22;;;23.10;89.70;;;;;;4986619;28;20026;-81
2022/06/24 00:04:31;;;;;;;5.78;4.50;;;23.10;88.90;;;;;;4986877;28;20069;-81
2022/06/24 00:06:57;;;;;;;7.15;5.93;;;23.10;89.00;;;;;;4987559;28;20026;-80
2022/06/24 00:09:26;;;;;;;6.43;5.50;;;23.00;88.90;;;;;;4988220;28;20097;-81
2022/06/24 00:12:06;;;;;;;6.43;5.50;;;23.00;89.50;;;;;;5005758;28;20327;-81
2022/06/24 00:14:34;;;;;;;8.95;5.32;;;22.90;89.80;;;;;;4989838;28;20023;-80
2022/06/24 00:17:05;;;;;;;7.63;5.60;;;22.90;90.10;;;;;;4989434;28;20045;-81
2022/06/24 00:19:33;;;;;;;8.70;5.65;;;22.90;89.80;;;;;;4990349;28;20022;-81
2022/06/24 00:22:03;;;;;;;8.10;6.25;;;22.90;90.20;;;;;;4989962;28;20482;-81
2022/06/24 00:24:33;;;;;;;7.68;5.85;;;22.80;90.40;;;;;;4989639;28;20348;-81
2022/06/24 00:26:59;;;;;;;6.88;5.65;;;22.80;90.20;;;;;;4990296;28;20042;-80
2022/06/24 00:29:27;;;;;;;7.17;5.70;;;22.80;90.40;;;;;;4989386;28;20063;-81
2022/06/24 00:32:06;;;;;;;9.35;5.95;;;22.80;90.60;;;;;;4973324;28;20025;-81
2022/06/24 00:34:34;;;;;;;8.68;6.55;;;22.70;90.80;;;;;;5004648;28;20038;-80
2022/06/24 00:37:27;;;;;;;6.93;5.82;;;22.70;90.90;;;;;;4989454;28;20214;-79
2022/06/24 00:39:56;;;;;;;9.57;6.50;;;22.70;91.00;;;;;;4972164;28;20022;-80
2022/06/24 00:42:22;;;;;;;10.65;7.00;;;22.60;90.90;;;;;;4971465;28;20127;-81
2022/06/24 00:45:06;;;;;;;9.45;6.80;;;22.60;91.20;;;;;;4987048;28;20081;-81
2022/06/24 00:47:32;;;;;;;8.52;6.28;;;22.50;91.40;;;;;;4983770;28;20035;-81
2022/06/24 00:49:58;;;;;;;10.63;6.80;;;22.50;91.40;;;;;;4983999;28;20095;-80
2022/06/24 00:52:24;;;;;;;;;;;22.50;91.50;;;;;;4973386;28;20029;-81
2022/06/24 00:54:50;;;;;;;10.20;6.45;;;22.40;91.40;;;;;;5003214;28;20197;-80
2022/06/24 00:57:15;;;;;;;6.87;6.03;;;22.40;91.70;;;;;;4987104;28;20022;-79
2022/06/24 00:59:42;;;;;;;9.97;7.10;;;22.40;91.80;;;;;;5002940;28;20213;-79
2022/06/24 01:02:08;;;;;;;9.38;6.60;;;22.30;92.00;;;;;;5003780;28;20019;-80
2022/06/24 01:04:34;;;;;;;8.07;6.03;;;22.30;92.10;;;;;;4987775;28;20085;-79
2022/06/24 01:07:00;;;;;;;8.80;5.90;;;22.30;92.30;;;;;;4988233;28;20030;-80
2022/06/24 01:09:26;;;;;;;5.88;5.28;;;22.30;92.50;;;;;;4987785;28;20030;-79
2022/06/24 01:11:51;;;;;;;6.53;5.07;;;22.30;92.50;;;;;;4971529;28;20026;-80
2022/06/24 01:14:17;;;;;;;11.10;6.00;;;22.30;92.60;;;;;;4986818;28;20082;-80
2022/06/24 01:16:43;;;;;;;9.83;6.17;;;22.20;92.60;;;;;;4999577;28;20428;-81
2022/06/24 01:19:14;;;;;;;9.87;5.63;;;22.30;92.60;;;;;;4985273;28;20045;-80
2022/06/24 01:21:44;;;;;;;12.68;6.07;;;22.20;92.60;;;;;;4969097;28;20109;-80
2022/06/24 01:24:24;;;;;;;8.52;5.88;;;22.20;92.50;;;;;;4983840;28;20026;-81
2022/06/24 01:26:54;;;;;;;8.35;5.20;;;22.20;92.60;;;;;;4978569;28;20109;-80
2022/06/24 01:29:20;;;;;;;10.00;5.53;;;22.20;93.00;;;;;;4987941;28;20041;-79
2022/06/24 01:31:49;;;;;;;7.47;5.32;;;22.20;93.30;;;;;;4971137;28;20014;-80
2022/06/24 01:34:17;;;;;;;8.85;5.40;;;22.10;92.80;;;;;;5003301;28;20253;-80
2022/06/24 01:36:42;;;;;;;9.38;5.70;;;22.10;93.10;;;;;;4996316;22;20049;-78
2022/06/24 01:39:08;;;;;;;7.20;4.83;;;22.20;93.50;;;;;;5046601;28;20049;-76
2022/06/24 01:41:34;;;;;;;8.80;6.43;;;22.20;92.90;;;;;;5051668;28;20084;-75
2022/06/24 01:44:00;;;;;;;7.82;5.00;;;22.20;92.80;;;;;;5036005;28;20024;-75
2022/06/24 01:46:26;;;;;;;8.30;6.00;;;22.10;92.70;;;;;;5051261;28;20030;-75
2022/06/24 01:48:51;;;;;;;7.55;5.38;;;22.10;93.00;;;;;;5052521;28;20017;-75
2022/06/24 01:51:18;;;;;;;9.87;5.63;;;22.00;93.20;;;;;;5052675;28;20204;-75
2022/06/24 01:53:43;;;;;;;6.50;5.43;;;21.90;93.50;;;;;;5027528;28;20039;-75
2022/06/24 01:56:09;;;;;;;7.63;4.70;;;21.90;93.50;;;;;;5061014;28;20239;-75
2022/06/24 01:58:35;;;;;;;10.77;4.57;;;21.80;93.70;;;;;;5060595;28;20271;-75
2022/06/24 02:01:01;;;;;;;10.20;5.10;;;21.80;93.90;;;;;;5065899;28;20021;-75
2022/06/24 02:03:31;;;;;;;6.27;4.33;;;21.80;93.80;;;;;;5025520;28;20025;-75
2022/06/24 02:06:03;;;;;;;6.55;3.80;;;21.90;93.80;;;;;;5044661;28;20070;-75
2022/06/24 02:08:29;;;;;;;4.28;3.38;;;21.90;93.40;;;;;;5015314;28;20038;-75
2022/06/24 02:13:40;;;;;;;5.53;3.45;;;21.90;93.30;;;;;;5025093;28;20036;-75
2022/06/24 02:16:06;;;;;;;5.40;2.47;;;21.90;93.70;;;;;;5024964;28;20042;-75
2022/06/24 02:18:32;;;;;;;5.50;2.25;;;21.80;93.30;;;;;;5025095;28;20367;-75
2022/06/24 02:20:58;;;;;;;6.28;2.50;;;21.90;93.30;;;;;;5024971;28;20033;-76
2022/06/24 02:23:24;;;;;;;6.38;2.15;;;21.90;93.80;;;;;;5024541;28;20089;-75
2022/06/24 02:25:51;;;;;;;5.32;1.92;;;21.90;93.60;;;;;;5025000;28;20030;-76
2022/06/24 02:28:17;;;;;;;5.22;2.22;;;21.80;93.50;;;;;;5025315;28;20202;-76
2022/06/24 02:30:44;;;;;;;5.00;2.45;;;21.80;93.50;;;;;;5056439;28;20020;-75
2022/06/24 02:33:09;;;;;;;4.00;1.83;;;21.80;93.70;;;;;;5047666;28;20083;-75
2022/06/24 02:35:36;;;;;;;8.90;1.93;;;21.70;93.60;;;;;;5047690;28;20029;-76
2022/06/24 02:38:02;;;;;;;4.57;1.85;;;21.70;93.50;;;;;;5034924;28;20344;-76
2022/06/24 02:40:45;;;;;;;2.78;1.67;;;21.60;93.60;;;;;;5024484;28;20104;-76
2022/06/24 02:43:26;;;;;;;3.05;1.40;;;21.70;94.00;;;;;;5024497;28;20216;-77
2022/06/24 02:46:05;;;;;;;2.38;1.48;;;21.60;94.10;;;;;;5024027;28;20265;-76
2022/06/24 02:48:32;;;;;;;5.70;1.67;;;21.60;93.80;;;;;;5024404;28;20317;-76
2022/06/24 02:51:00;;;;;;;3.72;1.40;;;21.60;93.80;;;;;;5024505;28;20017;-75
2022/06/24 02:53:27;;;;;;;3.50;1.40;;;21.50;93.90;;;;;;5023866;28;20074;-75
2022/06/24 02:55:55;;;;;;;1.38;1.08;;;21.40;94.00;;;;;;5024354;28;20037;-76
2022/06/24 02:58:21;;;;;;;4.25;1.63;;;21.40;94.10;;;;;;5024114;28;20022;-76
2022/06/24 03:00:47;;;;;;;2.15;1.35;;;21.40;94.60;;;;;;5024280;28;20024;-76
2022/06/24 03:03:15;;;;;;;5.43;2.03;;;21.40;94.50;;;;;;5023916;28;20021;-76
2022/06/24 03:05:41;;;;;;;3.10;1.58;;;21.40;94.60;;;;;;5024192;28;20041;-76
2022/06/24 03:08:08;;;;;;;3.00;1.20;;;21.40;94.60;;;;;;5030275;28;20018;-76
2022/06/24 03:10:34;;;;;;;;;;;21.40;94.50;;;;;;5008329;28;20049;-76
2022/06/24 03:13:01;;;;;;;4.55;1.33;;;21.40;94.60;;;;;;5007599;28;20200;-77
2022/06/24 03:15:27;;;;;;;3.97;1.20;;;21.40;94.80;;;;;;5024078;28;20237;-77
2022/06/24 03:17:53;;;;;;;3.08;1.33;;;21.40;94.80;;;;;;5021885;28;20021;-77
2022/06/24 03:20:19;;;;;;;4.80;1.40;;;21.40;94.60;;;;;;5043857;28;20088;-76
2022/06/24 03:22:44;;;;;;;3.77;1.30;;;21.30;94.70;;;;;;5042732;28;20085;-77
2022/06/24 03:25:10;;;;;;;2.27;1.47;;;21.30;94.80;;;;;;5044978;28;20032;-79
2022/06/24 03:27:36;;;;;;;7.53;2.33;;;21.20;95.30;;;;;;5044632;28;20059;-79
2022/06/24 03:30:07;;;;;;;4.20;1.35;;;21.10;95.10;;;;;;5043485;28;20025;-79
2022/06/24 03:32:32;;;;;;;3.78;1.70;;;21.10;95.30;;;;;;5043459;28;20029;-79
2022/06/24 03:34:58;;;;;;;2.90;1.13;;;21.20;95.40;;;;;;5043472;28;20053;-79
2022/06/24 03:37:24;;;;;;;4.27;1.70;;;21.20;95.70;;;;;;5043396;28;20220;-79
2022/06/24 03:39:50;;;;;;;3.57;1.10;;;21.30;96.50;;;;;;5043832;28;20264;-79
2022/06/24 03:42:15;;;;;;;4.07;1.40;;;21.30;95.80;;;;;;5044772;28;20021;-80
2022/06/24 03:44:41;;;;;;;6.43;2.60;;;21.30;95.50;;;;;;5043050;28;20080;-80
2022/06/24 03:47:07;;;;;;;4.50;1.10;;;21.30;95.70;;;;;;5040260;28;20351;-79
2022/06/24 03:49:33;;;;;;;2.90;1.00;;;21.30;95.50;;;;;;5023859;28;20030;-80
2022/06/24 03:51:59;;;;;;;1.80;0.90;;;21.40;95.80;;;;;;5040369;28;20096;-80
2022/06/24 03:54:24;;;;;;;4.63;1.70;;;21.40;96.40;;;;;;5028502;28;20025;-79
2022/06/24 03:56:50;;;;;;;2.97;1.20;;;21.40;96.00;;;;;;5026322;28;20053;-80
2022/06/24 03:59:16;;;;;;;2.60;1.60;;;21.30;95.90;;;;;;5028296;28;20086;-80
2022/06/24 04:01:42;;;;;;;3.73;1.53;;;21.40;96.20;;;;;;5027942;28;20093;-79
2022/06/24 04:04:07;;;;;;;3.20;1.10;;;21.40;96.00;;;;;;5024038;28;20029;-79
2022/06/24 04:06:33;;;;;;;1.57;1.20;;;21.30;95.70;;;;;;5006861;28;20044;-79
2022/06/24 04:08:59;;;;;;;2.27;1.27;;;21.30;96.30;;;;;;5022648;28;20040;-79
2022/06/24 04:11:25;;;;;;;4.53;1.30;;;21.20;96.00;;;;;;5022990;28;20228;-80
2022/06/24 04:13:50;;;;;;;3.73;1.27;;;21.20;96.20;;;;;;4990294;28;20320;-79
2022/06/24 04:16:16;;;;;;;7.90;1.17;;;21.20;96.70;;;;;;5007436;28;20018;-80
2022/06/24 04:18:42;;;;;;;2.33;1.30;;;21.30;97.00;;;;;;5043748;28;20438;-79
2022/06/24 04:21:12;;;;;;;3.50;1.30;;;21.20;97.20;;;;;;5043753;28;20317;-80
2022/06/24 04:23:38;;;;;;;2.88;1.13;;;21.20;97.50;;;;;;5025694;28;20022;-79
2022/06/24 04:26:04;;;;;;;5.28;1.20;;;21.20;97.00;;;;;;5040750;28;20035;-81
2022/06/24 04:28:30;;;;;;;3.33;1.10;;;21.20;96.80;;;;;;5042329;28;20087;-79
2022/06/24 04:30:55;;;;;;;5.73;1.10;;;21.20;97.00;;;;;;5025965;28;20197;-79
2022/06/24 04:33:21;;;;;;;2.43;0.90;;;21.20;97.20;;;;;;5058514;28;20025;-79
2022/06/24 04:35:47;;;;;;;4.23;1.30;;;21.10;97.50;;;;;;5042429;28;20017;-79
2022/06/24 04:38:14;;;;;;;5.15;1.40;;;21.10;98.00;;;;;;5025127;28;20063;-80
2022/06/24 04:40:39;;;;;;;6.53;1.38;;;21.10;97.90;;;;;;5041990;28;20037;-79
2022/06/24 04:43:05;;;;;;;4.70;1.70;;;21.10;98.20;;;;;;5048016;28;20026;-79
2022/06/24 04:45:31;;;;;;;3.15;1.42;;;21.20;98.70;;;;;;5005821;28;20105;-79
2022/06/24 04:47:57;;;;;;;2.87;1.67;;;21.20;98.80;;;;;;5036982;28;20225;-79
2022/06/24 04:50:23;;;;;;;3.90;1.30;;;21.20;98.70;;;;;;5041783;28;20029;-79
2022/06/24 04:52:49;;;;;;;5.30;1.67;;;21.20;98.90;;;;;;5041375;28;20785;-78
2022/06/24 04:55:14;;;;;;;6.03;1.43;;;21.10;99.00;;;;;;5043010;28;20017;-78
2022/06/24 04:57:40;;;;;;;3.83;1.67;;;21.10;99.30;;;;;;5042703;28;20347;-78
2022/06/24 05:00:09;;;;;;;2.33;1.27;;;21.00;99.30;;;;;;5042793;28;20320;-78
2022/06/24 05:02:34;;;;;;;5.00;1.40;;;21.00;99.80;;;;;;5041555;28;20025;-78
2022/06/24 05:05:00;;;;;;;4.30;1.60;;;21.00;99.50;;;;;;5041412;28;20066;-78
2022/06/24 05:07:26;;;;;;;5.77;1.63;;;21.00;99.70;;;;;;5042500;28;20021;-78
2022/06/24 05:09:52;;;;;;;5.00;2.00;;;20.90;99.90;;;;;;5041436;28;20029;-78
2022/06/24 05:12:17;;;;;;;3.67;1.50;;;20.90;99.90;;;;;;5042556;28;20021;-79
2022/06/24 05:14:43;;;;;;;8.07;2.10;;;20.90;99.90;;;;;;5032392;28;20033;-78
2022/06/24 05:17:09;;;;;;;8.00;2.33;;;20.90;99.90;;;;;;5006119;28;20021;-78
2022/06/24 05:19:35;;;;;;;4.97;1.63;;;20.80;99.90;;;;;;5041305;28;20200;-78
2022/06/24 05:22:00;;;;;;;2.43;1.50;;;20.80;99.90;;;;;;5025034;28;20060;-77
2022/06/24 05:24:26;;;;;;;9.47;2.13;;;20.80;99.90;;;;;;5040717;28;20063;-77
2022/06/24 05:26:52;;;;;;;16.93;4.33;;;20.70;99.90;;;;;;5042593;28;20032;-77
2022/06/24 05:29:18;;;;;;;8.70;2.43;;;20.70;99.90;;;;;;5050507;28;20029;-76
2022/06/24 05:31:45;;;;;;;7.33;2.00;;;20.70;99.90;;;;;;5065998;28;20032;-77
2022/06/24 05:34:11;;;;;;;3.83;1.50;;;20.60;99.90;;;;;;5014014;28;20014;-81
2022/06/24 05:36:37;;;;;;;5.65;1.95;;;20.60;99.90;;;;;;5082060;28;20024;-79
2022/06/24 05:39:04;;;;;;;3.40;1.57;;;20.60;99.90;;;;;;5050660;28;20030;-79
2022/06/24 05:41:30;;;;;;;3.78;1.88;;;20.70;99.90;;;;;;5052941;28;20247;-78
2022/06/24 05:43:55;;;;;;;3.77;1.47;;;20.80;99.90;;;;;;5052612;28;20023;-80
2022/06/24 05:46:21;;;;;;;5.07;1.50;;;20.80;99.90;;;;;;5046350;28;20021;-82
2022/06/24 05:48:47;;;;;;;7.40;1.93;;;20.70;99.90;;;;;;5059027;28;20028;-78
2022/06/24 05:51:18;;;;;;;5.53;1.80;;;20.60;99.90;;;;;;5064262;28;20025;-80
2022/06/24 05:56:29;;;;;;;3.72;1.35;;;20.60;99.90;;;;;;5046826;28;20388;-77
2022/06/24 05:58:55;;;;;;;;;;;20.60;99.90;;;;;;5044347;28;20031;-77
2022/06/24 06:01:21;;;;;;;5.15;1.42;;;20.50;99.90;;;;;;5040562;28;20124;-77
2022/06/24 06:03:49;;;;;;;4.47;1.50;;;20.50;99.90;;;;;;5040196;28;20021;-75
2022/06/24 06:06:15;;;;;;;4.57;1.42;;;20.40;99.90;;;;;;5041946;28;20024;-75
2022/06/24 06:08:41;;;;;;;11.93;2.00;;;20.40;99.90;;;;;;5041231;28;20025;-75
2022/06/24 06:11:13;;;;;;;4.23;1.23;;;20.50;99.90;;;;;;5038606;28;20096;-76
2022/06/24 06:13:43;;;;;;;2.33;1.30;;;20.50;99.90;;;;;;5040358;28;20312;-77
2022/06/24 06:16:09;;;;;;;2.92;1.15;;;20.50;99.90;;;;;;5024474;28;20278;-75
2022/06/24 06:18:35;;;;;;;3.72;1.10;;;20.50;99.90;;;;;;5023341;28;20045;-76
2022/06/24 06:21:07;;;;;;;4.23;1.03;;;20.50;99.90;;;;;;5041738;28;20332;-76
2022/06/24 06:23:34;;;;;;;4.20;1.45;;;20.50;99.90;;;;;;5040255;28;20542;-75
2022/06/24 06:26:00;;;;;;;;;;;20.40;99.90;;;;;;5042146;28;20040;-76
2022/06/24 06:28:26;;;;;;;5.72;1.23;;;20.40;99.90;;;;;;5024010;28;19905;-75
2022/06/24 06:30:52;;;;;;;4.03;1.43;;;20.60;99.90;;;;;;5040650;28;20351;-76
2022/06/24 06:33:18;;;;;;;4.10;1.58;;;20.60;99.90;;;;;;5035276;28;20025;-76
2022/06/24 06:35:44;;;;;;;4.97;1.60;;;20.60;99.90;;;;;;5020866;28;20096;-75
2022/06/24 06:38:10;;;;;;;6.03;2.03;;;20.70;99.90;;;;;;5032542;28;20081;-76
2022/06/24 06:40:39;;;;;;;7.47;1.80;;;20.80;99.90;;;;;;5041465;28;20080;-76
2022/06/24 06:43:07;;;;;;;5.68;2.15;;;20.80;99.90;;;;;;5007402;28;20057;-76
2022/06/24 06:45:34;;;;;;;6.63;2.17;;;20.80;99.90;;;;;;5008461;28;20021;-76
2022/06/24 06:48:00;;;;;;;5.05;1.83;;;20.80;99.90;;;;;;5040262;28;20212;-76
2022/06/24 06:50:26;;;;;;;5.60;1.80;;;20.80;99.90;;;;;;5041752;28;20034;-76
2022/06/24 06:52:51;;;;;;;5.88;2.13;;;20.80;99.90;;;;;;5041119;28;20017;-76
2022/06/24 06:55:17;;;;;;;4.27;2.03;;;20.80;99.90;;;;;;5041226;28;20033;-76
2022/06/24 06:57:43;;;;;;;10.53;4.37;;;20.80;99.90;;;;;;5041254;28;20041;-76
2022/06/24 07:00:10;;;;;;;6.18;2.30;;;20.90;99.90;;;;;;5045313;28;20366;-76
2022/06/24 07:02:39;;;;;;;8.10;3.00;;;20.90;99.90;;;;;;5043754;28;20065;-76
2022/06/24 07:05:05;;;;;;;6.13;2.67;;;20.80;99.90;;;;;;5043894;28;20028;-76
2022/06/24 07:07:31;;;;;;;6.97;2.15;;;20.90;99.90;;;;;;5043775;28;20120;-76
2022/06/24 07:09:57;;;;;;;4.03;2.10;;;20.90;99.90;;;;;;5043623;28;20029;-76
2022/06/24 07:12:24;;;;;;;4.25;2.15;;;21.00;99.90;;;;;;5045055;28;20022;-77
2022/06/24 07:14:49;;;;;;;3.80;1.95;;;21.10;99.90;;;;;;5027279;28;20022;-76
2022/06/24 07:17:16;;;;;;;5.20;2.27;;;21.10;99.90;;;;;;5040030;28;20014;-76
2022/06/24 07:19:42;;;;;;;5.03;2.30;;;21.20;99.90;;;;;;5024076;28;20017;-76
2022/06/24 07:22:08;;;;;;;8.43;2.55;;;21.30;99.90;;;;;;5025057;28;20271;-76
2022/06/24 07:24:33;;;;;;;5.07;1.83;;;21.30;99.90;;;;;;5023242;28;20033;-76
2022/06/24 07:27:03;;;;;;;7.23;1.73;;;21.40;99.90;;;;;;5024371;28;21585;-76
2022/06/24 07:29:31;;;;;;;5.85;2.17;;;21.40;99.90;;;;;;5007983;28;20100;-76
2022/06/24 07:31:57;;;;;;;5.55;1.88;;;21.40;99.90;;;;;;5023576;28;20206;-76
2022/06/24 07:34:23;;;;;;;5.13;2.20;;;21.40;99.50;;;;;;5024311;28;20141;-76
2022/06/24 07:36:48;;;;;;;8.67;2.80;;;21.40;99.20;;;;;;5024326;28;20036;-76
2022/06/24 07:39:14;;;;;;;6.63;1.97;;;21.40;99.00;;;;;;5023647;28;20038;-76
2022/06/24 07:41:40;;;;;;;7.27;2.00;;;21.40;98.80;;;;;;5023577;28;20021;-76
2022/06/24 07:44:06;;;;;;;4.93;1.93;;;21.40;98.80;;;;;;5024733;28;20073;-76
2022/06/24 07:46:31;;;;;;;5.50;2.73;;;21.40;98.80;;;;;;5026526;28;20034;-76
2022/06/24 07:48:57;;;;;;;5.37;2.23;;;21.50;99.60;;;;;;5043759;28;20029;-75
2022/06/24 07:51:23;;;;;;;5.87;2.00;;;21.50;99.30;;;;;;5059908;28;20022;-75
2022/06/24 07:53:49;;;;;;;11.43;3.00;;;21.50;99.20;;;;;;5044018;28;20037;-76
2022/06/24 07:58:59;;;;;;;5.70;2.20;;;21.50;99.00;;;;;;5056824;28;20040;-76
2022/06/24 08:01:25;;;;;;;8.00;3.17;;;21.50;99.50;;;;;;5042636;28;20033;-76
2022/06/24 08:03:50;;;;;;;5.50;2.60;;;21.50;99.50;;;;;;5043558;28;20093;-76
2022/06/24 08:06:16;;;;;;;8.77;3.17;;;21.50;99.80;;;;;;5042853;28;20025;-76
2022/06/24 08:08:42;;;;;;;5.17;3.07;;;21.60;99.70;;;;;;5042534;28;20045;-76
2022/06/24 08:11:08;;;;;;;5.33;2.13;;;21.60;99.80;;;;;;5042760;28;20029;-76
2022/06/24 08:13:33;;;;;;;4.23;3.17;;;21.60;99.70;;;;;;5042229;28;20059;-76
2022/06/24 08:16:00;;;;;;;5.97;2.53;;;21.60;99.20;;;;;;5043405;28;20024;-76
2022/06/24 08:18:26;;;;;;;6.57;2.83;;;21.60;99.20;;;;;;5022382;28;20017;-76
2022/06/24 08:20:51;;;;;;;4.40;2.28;;;21.60;99.40;;;;;;5039133;28;20221;-76
2022/06/24 08:23:17;;;;;;;4.80;2.87;;;21.70;99.70;;;;;;5023577;28;20225;-75
2022/06/24 08:25:43;;;;;;;8.97;2.73;;;21.70;99.80;;;;;;5022685;28;20305;-76
2022/06/24 08:28:08;;;;;;;9.53;2.60;;;21.80;99.90;;;;;;5022532;28;20075;-76
2022/06/24 08:30:34;;;;;;;5.00;2.63;;;21.80;99.60;;;;;;5022513;28;20048;-75
2022/06/24 08:33:03;;;;;;;10.60;2.80;;;21.90;99.20;;;;;;5022079;28;20216;-76
2022/06/24 08:35:29;;;;;;;6.07;2.00;;;21.90;97.80;;;;;;5022377;28;20044;-76
2022/06/24 08:37:56;;;;;;;4.88;2.20;;;21.90;97.30;;;;;;5022256;28;20093;-76
2022/06/24 08:40:22;;;;;;;;;;;22.00;96.70;;;;;;5022930;28;20033;-76
2022/06/24 08:42:57;;;;;;;7.15;2.53;;;22.10;97.00;;;;;;5022054;28;19905;-75
2022/06/24 08:45:23;;;;;;;4.78;2.33;;;22.10;96.90;;;;;;5006109;28;20021;-75
2022/06/24 08:47:49;;;;;;;3.85;2.33;;;22.10;97.20;;;;;;5017998;28;20056;-75
2022/06/24 08:50:15;;;;;;;5.40;2.60;;;22.20;97.00;;;;;;5041956;28;20036;-76
2022/06/24 08:52:50;;;;;;;8.88;3.35;;;22.30;97.30;;;;;;5058265;28;20025;-76
2022/06/24 08:55:18;;;;;;;8.52;2.70;;;22.30;96.80;;;;;;5041963;28;20029;-76
2022/06/24 08:57:45;;;;;;;5.43;2.20;;;22.40;96.80;;;;;;5025659;28;20029;-75
2022/06/24 09:00:12;;;;;;;9.27;3.03;;;22.40;96.70;;;;;;5041809;28;20027;-76
2022/06/24 09:02:38;;;;;;;7.35;2.67;;;22.40;96.00;;;;;;5041509;28;20033;-76
2022/06/24 09:05:12;;;;;;;4.55;2.10;;;22.40;96.20;;;;;;5025144;28;20033;-76
2022/06/24 09:07:37;;;;;;;8.25;2.60;;;22.40;96.80;;;;;;5041667;28;20092;-76
2022/06/24 09:10:10;;;;;;;4.35;2.75;;;22.50;97.40;;;;;;5041752;28;20044;-75
2022/06/24 09:12:41;;;;;;;5.47;2.42;;;22.60;97.10;;;;;;5042291;28;20029;-76
2022/06/24 09:15:09;;;;;;;5.75;2.33;;;22.70;96.50;;;;;;5041608;28;20027;-76
2022/06/24 09:17:35;;;;;;;8.93;3.35;;;22.70;96.20;;;;;;5037792;28;20252;-76
2022/06/24 09:20:24;;;;;;;5.93;2.70;;;22.80;95.30;;;;;;5021266;28;20025;-75
2022/06/24 09:22:51;;;;;;;9.32;2.75;;;22.80;95.00;;;;;;5021355;28;20207;-75
2022/06/24 09:25:17;;;;;;;;;;;22.80;95.30;;;;;;5022038;28;20041;-76
2022/06/24 09:27:45;;;;;;;6.00;2.25;;;22.90;93.60;;;;;;5022809;28;20089;-75
2022/06/24 09:30:13;;;;;;;6.65;2.08;;;22.80;93.50;;;;;;5022495;28;20029;-76
2022/06/24 09:32:55;;;;;;;9.50;2.60;;;22.80;93.80;;;;;;5022227;28;20105;-76
2022/06/24 09:35:22;;;;;;;7.43;2.30;;;22.80;93.50;;;;;;5021462;28;20080;-76
2022/06/24 09:37:49;;;;;;;5.85;2.45;;;22.90;93.90;;;;;;5021070;28;20026;-75
2022/06/24 09:40:20;;;;;;;5.28;2.38;;;23.00;94.30;;;;;;5021425;28;20041;-75
2022/06/24 09:43:00;;;;;;;8.48;2.70;;;23.10;94.50;;;;;;5021168;28;20026;-75
2022/06/24 09:45:50;;;;;;;6.22;2.90;;;23.20;93.70;;;;;;5021315;28;20329;-75
2022/06/24 09:48:32;;;;;;;4.78;2.42;;;23.30;94.00;;;;;;5038233;28;20021;-78
2022/06/24 09:51:03;;;;;;;7.93;2.42;;;23.30;93.80;;;;;;5056680;28;20036;-80
2022/06/24 09:53:37;;;;;;;8.40;2.80;;;23.40;94.40;;;;;;5040639;28;20057;-80
2022/06/24 09:56:08;;;;;;;6.80;2.80;;;23.50;94.60;;;;;;5038286;28;20221;-77
2022/06/24 09:58:38;;;;;;;7.88;2.17;;;23.50;95.30;;;;;;4988719;28;20092;-78
2022/06/24 10:01:04;;;;;;;4.53;2.05;;;23.60;92.50;;;;;;5004720;28;20026;-79
2022/06/24 10:03:30;;;;;;;4.45;2.28;;;23.70;93.10;;;;;;5020652;28;20033;-77
2022/06/24 10:06:10;;;;;;;5.38;2.20;;;23.80;94.00;;;;;;5021082;28;20356;-78
2022/06/24 10:08:35;;;;;;;5.32;2.28;;;23.90;94.50;;;;;;5005015;28;20053;-78
2022/06/24 10:11:06;;;;;;;4.30;2.38;;;23.90;93.90;;;;;;5021025;28;20017;-78
2022/06/24 10:13:33;;;;;;;6.20;3.00;;;23.90;93.00;;;;;;5004846;28;20034;-78
2022/06/24 10:16:01;;;;;;;;;;;23.90;91.50;;;;;;5005317;28;20037;-78
2022/06/24 10:18:32;;;;;;;5.55;2.13;;;23.90;92.00;;;;;;5054682;28;19908;-79
2022/06/24 10:21:02;;;;;;;6.10;2.30;;;24.00;92.80;;;;;;5040706;28;20092;-78
2022/06/24 10:23:44;;;;;;;7.15;3.15;;;24.00;91.60;;;;;;5040435;28;20356;-78
2022/06/24 10:26:27;;;;;;;5.38;2.95;;;24.10;92.00;;;;;;5042009;28;20056;-78
2022/06/24 10:29:05;;;;;;;7.38;3.28;;;24.20;92.50;;;;;;5055605;28;20026;-78
2022/06/24 10:31:43;;;;;;;7.38;2.28;;;24.30;91.00;;;;;;5042001;28;20131;-78
2022/06/24 10:34:09;;;;;;;10.02;2.63;;;24.30;91.40;;;;;;5044054;28;20057;-80
2022/06/24 10:36:35;;;;;;;6.93;2.40;;;24.30;91.70;;;;;;5045641;28;20021;-80
2022/06/24 10:39:12;;;;;;;7.05;2.90;;;24.30;92.30;;;;;;5044194;28;20044;-81
2022/06/24 10:41:39;;;;;;;5.65;2.55;;;24.30;91.80;;;;;;5044322;28;20017;-79
2022/06/24 10:44:31;;;;;;;6.00;2.30;;;24.50;91.00;;;;;;5040127;28;20088;-78
2022/06/24 10:47:10;;;;;;;5.60;2.88;;;24.50;90.20;;;;;;5031115;28;20049;-79
2022/06/24 10:50:04;;;;;;;5.55;3.03;;;24.50;90.70;;;;;;5045290;28;20022;-79
2022/06/24 10:52:48;;;;;;;4.10;2.40;;;24.50;89.90;;;;;;5040740;28;20022;-78
2022/06/24 10:55:28;;;;;;;6.88;2.78;;;24.50;91.40;;;;;;5041647;28;20025;-79
2022/06/24 10:58:08;;;;;;;8.45;2.67;;;24.60;90.10;;;;;;5036315;28;20228;-78
2022/06/24 11:00:37;;;;;;;6.30;2.70;;;24.70;89.20;;;;;;5044136;28;20295;-78
2022/06/24 11:03:05;;;;;;;4.20;2.30;;;24.80;88.10;;;;;;5044790;28;20031;-79
2022/06/24 11:05:39;;;;;;;3.78;1.98;;;24.80;88.50;;;;;;5045050;28;20236;-78
2022/06/24 11:08:16;;;;;;;6.72;2.72;;;24.90;90.70;;;;;;5027313;28;20021;-79
2022/06/24 11:10:42;;;;;;;7.75;2.60;;;25.10;86.70;;;;;;5043846;28;20029;-78
2022/06/24 11:13:10;;;;;;;7.43;2.67;;;25.20;84.60;;;;;;5043446;28;20032;-80
2022/06/24 11:15:43;;;;;;;6.68;2.90;;;25.20;84.30;;;;;;5027383;28;20021;-79
2022/06/24 11:18:20;;;;;;;7.90;2.78;;;25.30;85.10;;;;;;5024113;28;20025;-79
2022/06/24 11:21:09;;;;;;;6.78;2.50;;;25.30;85.50;;;;;;5025153;28;20080;-78
2022/06/24 11:23:40;;;;;;;6.18;2.13;;;25.40;85.60;;;;;;5023896;28;20260;-77
2022/06/24 11:26:09;;;;;;;5.60;2.08;;;25.50;86.00;;;;;;5023814;28;20316;-76
2022/06/24 11:28:39;;;;;;;6.68;2.30;;;25.50;81.10;;;;;;4991763;28;20203;-76
2022/06/24 11:31:17;;;;;;;6.55;2.72;;;25.50;83.10;;;;;;5007343;28;20014;-77
2022/06/24 11:33:44;;;;;;;4.30;2.03;;;25.60;82.00;;;;;;5029860;28;20523;-74
2022/06/24 11:36:10;;;;;;;4.70;1.90;;;25.70;80.90;;;;;;5044510;28;20048;-77
2022/06/24 11:38:54;;;;;;;5.28;2.35;;;25.80;79.60;;;;;;5043366;28;20324;-75
2022/06/24 11:41:28;;;;;;;4.35;1.77;;;25.90;78.20;;;;;;5043257;28;20053;-75
2022/06/24 11:43:53;;;;;;;5.50;2.10;;;26.00;77.30;;;;;;5042364;28;20323;-75
2022/06/24 11:46:19;;;;;;;5.88;1.80;;;26.20;74.30;;;;;;5044033;28;20022;-73
2022/06/24 11:48:45;;;;;;;5.53;1.70;;;26.20;74.90;;;;;;5043869;28;20029;-74
2022/06/24 11:51:21;;;;;;;4.82;1.73;;;26.40;73.70;;;;;;5043005;28;20018;-74
2022/06/24 11:54:08;;;;;;;5.80;2.07;;;26.50;73.40;;;;;;5042940;28;20017;-74
2022/06/24 11:56:37;;;;;;;6.55;1.98;;;26.40;72.20;;;;;;5043518;28;20034;-75
2022/06/24 11:59:04;;;;;;;6.47;2.10;;;26.50;74.40;;;;;;5042165;28;20025;-75
2022/06/24 12:01:30;;;;;;;3.08;1.92;;;26.50;74.50;;;;;;5059595;28;20132;-75
2022/06/24 12:03:58;;;;;;;5.50;2.15;;;26.40;74.80;;;;;;5042603;28;20047;-75
2022/06/24 12:06:24;;;;;;;5.65;1.92;;;26.50;76.00;;;;;;5059538;28;20204;-75
2022/06/24 12:08:50;;;;;;;6.55;3.13;;;26.50;76.60;;;;;;5043575;28;20025;-74
2022/06/24 12:11:18;;;;;;;11.77;5.88;;;26.60;74.30;;;;;;5059329;28;20037;-75
2022/06/24 12:14:04;;;;;;;12.18;4.97;;;26.60;75.90;;;;;;5025885;28;20360;-72
2022/06/24 12:17:02;;;;;;;8.32;2.20;;;26.60;75.80;;;;;;5057646;28;20080;-72
2022/06/24 12:19:31;;;;;;;7.70;2.35;;;26.60;77.00;;;;;;5042911;28;20021;-74
2022/06/24 12:22:10;;;;;;;7.63;3.05;;;26.70;78.60;;;;;;5059061;28;20081;-77
2022/06/24 12:24:37;;;;;;;4.82;2.33;;;26.80;77.30;;;;;;5025865;28;20064;-74
2022/06/24 12:27:04;;;;;;;9.95;2.15;;;26.90;78.00;;;;;;5043255;28;20029;-73
2022/06/24 12:29:41;;;;;;;6.43;2.13;;;27.00;78.30;;;;;;5043624;28;20067;-73
2022/06/24 12:32:07;;;;;;;;;;;27.10;77.10;;;;;;5044029;28;20021;-73
2022/06/24 12:34:34;;;;;;;4.57;1.90;;;27.00;76.40;;;;;;5042974;28;19944;-73
2022/06/24 12:37:09;;;;;;;5.32;2.58;;;27.00;75.30;;;;;;5042200;28;20051;-72
2022/06/24 12:39:43;;;;;;;5.97;2.38;;;27.00;76.20;;;;;;5043674;28;20040;-72
2022/06/24 12:42:13;;;;;;;7.28;2.58;;;27.00;75.70;;;;;;5043636;28;20167;-73
2022/06/24 12:44:46;;;;;;;6.05;2.40;;;26.90;75.10;;;;;;5058068;28;20029;-73
2022/06/24 12:52:47;;;;;;;5.45;2.40;;;26.70;77.20;;;;;;5042014;28;20055;-73
2022/06/24 12:55:17;;;;;;;;;;;26.60;75.80;;;;;;5042769;28;20063;-73
2022/06/24 12:57:43;;;;;;;7.68;2.80;;;26.50;75.10;;;;;;5041585;28;19904;-73
2022/06/24 13:00:14;;;;;;;7.43;2.83;;;26.30;74.40;;;;;;5039940;28;20044;-72
2022/06/24 13:02:48;;;;;;;7.35;2.55;;;26.20;73.50;;;;;;5041328;28;20051;-73
2022/06/24 13:05:15;;;;;;;7.38;2.40;;;26.10;76.10;;;;;;5041747;28;20232;-73
2022/06/24 13:07:41;;;;;;;7.20;2.50;;;26.10;78.10;;;;;;5041703;28;20044;-73
2022/06/24 13:10:08;;;;;;;7.13;2.50;;;25.90;74.80;;;;;;5042554;28;20327;-72